Time;durP1;ratioP1;P1;durP2;ratioP2;P2;SDS_P1;SDS_P2;PMS_P1;PMS_P2;Temp;Humidity;BMP_temperature;BMP_pressure;BME280_temperature;BME280_humidity;BME280_pressure;Samples;Min_cycle;Max_cycle;Signal;HPM_P1;HPM_P2
2022/02/06 00:01:34;;;;;;;5.35;1.48;;;8.20;98.10;;;;;;5080562;28;20037;-73
2022/02/06 00:04:00;;;;;;;9.68;1.67;;;8.20;98.10;;;;;;5046818;28;20433;-72
2022/02/06 00:06:26;;;;;;;4.32;1.50;;;8.10;98.10;;;;;;5048570;28;20033;-74
2022/02/06 00:08:51;;;;;;;3.63;1.30;;;8.20;98.10;;;;;;5048083;28;20048;-74
2022/02/06 00:11:18;;;;;;;5.57;1.30;;;8.20;98.00;;;;;;5048187;28;20052;-71
2022/02/06 00:13:43;;;;;;;2.75;1.38;;;8.30;98.10;;;;;;5080433;28;20128;-73
2022/02/06 00:16:09;;;;;;;6.63;1.50;;;8.30;98.10;;;;;;5047981;28;20121;-73
2022/02/06 00:18:34;;;;;;;7.15;1.92;;;8.20;98.30;;;;;;5047847;28;20382;-71
2022/02/06 00:21:06;;;;;;;4.40;1.48;;;8.20;98.30;;;;;;5048188;28;20477;-72
2022/02/06 00:23:32;;;;;;;8.13;1.60;;;8.20;98.40;;;;;;5047699;28;20487;-72
2022/02/06 00:26:39;;;;;;;2.70;1.35;;;8.20;98.60;;;;;;5047760;28;20057;-72
2022/02/06 00:29:32;;;;;;;4.68;1.60;;;8.20;98.90;;;;;;5047502;28;20025;-73
2022/02/06 00:32:04;;;;;;;4.78;1.70;;;8.10;99.00;;;;;;5047199;28;20033;-72
2022/02/06 00:34:49;;;;;;;5.68;1.63;;;8.10;99.20;;;;;;5047769;28;20025;-73
2022/02/06 00:40:00;;;;;;;7.63;1.80;;;7.90;99.60;;;;;;5047697;28;20032;-71
2022/02/06 00:42:25;;;;;;;7.28;1.33;;;8.00;99.60;;;;;;5047567;28;20482;-73
2022/02/06 00:44:51;;;;;;;2.63;1.15;;;8.00;99.60;;;;;;5047540;28;20044;-73
2022/02/06 00:47:17;;;;;;;6.47;1.73;;;8.10;99.90;;;;;;5047407;28;20033;-73
2022/02/06 00:49:44;;;;;;;7.63;1.65;;;8.10;99.80;;;;;;5046221;28;20090;-73
2022/02/06 00:52:16;;;;;;;5.18;1.77;;;8.00;99.80;;;;;;5047292;28;20564;-73
2022/02/06 00:54:42;;;;;;;5.10;1.52;;;8.00;99.90;;;;;;5040208;28;20026;-72
2022/02/06 00:57:08;;;;;;;3.65;1.50;;;8.00;99.90;;;;;;5034252;28;20059;-72
2022/02/06 00:59:34;;;;;;;6.50;1.85;;;8.00;99.90;;;;;;5032710;28;20025;-72
2022/02/06 01:01:59;;;;;;;3.22;1.50;;;8.00;99.90;;;;;;5033881;28;20025;-74
2022/02/06 01:04:28;;;;;;;3.47;1.35;;;8.00;99.90;;;;;;5033637;28;20498;-72
2022/02/06 01:06:53;;;;;;;8.73;1.73;;;8.00;99.90;;;;;;5033645;28;20052;-74
2022/02/06 01:09:19;;;;;;;3.67;1.40;;;8.00;99.90;;;;;;5034156;28;20440;-73
2022/02/06 01:11:46;;;;;;;7.40;1.52;;;8.10;99.90;;;;;;5033676;28;20489;-73
2022/02/06 01:14:21;;;;;;;7.18;1.63;;;8.10;99.90;;;;;;5032497;28;20033;-71
2022/02/06 01:17:02;;;;;;;7.43;1.60;;;8.10;99.90;;;;;;5033641;28;20370;-73
2022/02/06 01:19:38;;;;;;;5.10;1.30;;;8.20;99.90;;;;;;5033494;28;20041;-72
2022/02/06 01:22:08;;;;;;;8.23;1.92;;;8.10;99.90;;;;;;5033389;28;20347;-73
2022/02/06 01:24:43;;;;;;;11.30;1.88;;;8.10;99.90;;;;;;5033585;28;20110;-72
2022/02/06 01:27:14;;;;;;;3.55;1.50;;;8.00;99.90;;;;;;5033921;28;20024;-74
2022/02/06 01:29:53;;;;;;;5.90;1.42;;;8.10;99.90;;;;;;5033397;28;20032;-73
2022/02/06 01:32:23;;;;;;;7.30;1.58;;;8.10;99.90;;;;;;5033234;28;20029;-75
2022/02/06 01:34:58;;;;;;;8.38;1.83;;;8.10;99.90;;;;;;5033343;28;20034;-74
2022/02/06 01:37:32;;;;;;;2.53;1.30;;;8.10;99.90;;;;;;5033245;28;20033;-72
2022/02/06 02:04:08;;;;;;;4.72;1.15;;;8.20;99.90;;;;;;5032820;28;20049;-74
2022/02/06 02:07:27;;;;;;;4.38;1.20;;;8.30;99.90;;;;;;5033738;28;20053;-75
2022/02/06 02:10:28;;;;;;;1.85;0.82;;;8.30;99.90;;;;;;5032712;28;20041;-75
2022/02/06 02:17:42;;;;;;;2.80;1.13;;;8.20;99.90;;;;;;5032442;28;20045;-73
2022/02/06 02:25:46;;;;;;;2.53;0.52;;;8.30;99.90;;;;;;5032215;28;20155;-74
2022/02/06 02:28:37;;;;;;;5.70;1.25;;;8.30;99.90;;;;;;5032071;28;20036;-75
2022/02/06 02:31:22;;;;;;;2.67;0.98;;;8.30;99.90;;;;;;5031976;28;20041;-74
2022/02/06 02:42:56;;;;;;;4.30;0.88;;;8.20;99.90;;;;;;5031941;28;20021;-73
2022/02/06 02:45:22;;;;;;;3.35;0.90;;;8.20;99.90;;;;;;5032008;28;20337;-75
2022/02/06 02:47:51;;;;;;;1.00;0.57;;;8.20;99.90;;;;;;5031942;28;20029;-74
2022/02/06 02:50:24;;;;;;;2.13;0.88;;;8.20;99.90;;;;;;5030695;28;20034;-75
2022/02/06 03:01:10;;;;;;;0.95;0.60;;;8.20;99.90;;;;;;5031807;28;20033;-74
2022/02/06 03:03:39;;;;;;;1.33;0.73;;;8.20;99.90;;;;;;5031543;28;20095;-72
2022/02/06 03:06:06;;;;;;;3.17;1.02;;;8.20;99.90;;;;;;5032617;28;20028;-72
2022/02/06 03:08:35;;;;;;;3.37;0.90;;;8.20;99.90;;;;;;5031675;28;20355;-72
2022/02/06 03:11:06;;;;;;;1.88;0.57;;;8.20;99.90;;;;;;5031472;28;20029;-73
2022/02/06 03:21:24;;;;;;;1.48;0.63;;;8.20;99.90;;;;;;5031792;28;20323;-73
2022/02/06 03:23:52;;;;;;;4.18;1.05;;;8.30;99.90;;;;;;5031249;28;20090;-73
2022/02/06 03:26:19;;;;;;;1.23;0.80;;;8.30;99.90;;;;;;5031374;28;20402;-72
2022/02/06 03:28:45;;;;;;;0.88;0.60;;;8.30;99.90;;;;;;5031236;28;20137;-73
2022/02/06 03:31:11;;;;;;;1.27;0.52;;;8.30;99.90;;;;;;5031296;28;20029;-74
2022/02/06 03:33:37;;;;;;;1.42;0.70;;;8.30;99.90;;;;;;5031370;28;20024;-72
2022/02/06 03:36:02;;;;;;;3.13;0.70;;;8.30;99.90;;;;;;5031566;28;20469;-73
2022/02/06 03:38:29;;;;;;;1.55;0.70;;;8.30;99.90;;;;;;5031220;28;20037;-74
2022/02/06 03:41:01;;;;;;;3.92;0.70;;;8.30;99.90;;;;;;5031044;28;20040;-73
2022/02/06 03:43:41;;;;;;;3.10;0.80;;;8.30;99.90;;;;;;5030892;28;20437;-72
2022/02/06 03:46:12;;;;;;;4.65;1.05;;;8.30;99.90;;;;;;5031184;28;20049;-72
2022/02/06 03:48:51;;;;;;;1.98;0.80;;;8.30;99.90;;;;;;5031011;28;20175;-73
2022/02/06 03:51:31;;;;;;;1.95;0.85;;;8.30;99.90;;;;;;5031484;28;20021;-72
2022/02/06 03:53:56;;;;;;;3.13;0.75;;;8.30;99.90;;;;;;5031132;28;20076;-72
2022/02/06 03:56:23;;;;;;;2.70;1.00;;;8.20;99.90;;;;;;5030938;28;20061;-72
2022/02/06 03:58:49;;;;;;;2.58;0.85;;;8.30;99.90;;;;;;5031045;28;20025;-72
2022/02/06 04:01:15;;;;;;;1.35;0.70;;;8.20;99.90;;;;;;5030808;28;20029;-73
2022/02/06 04:03:41;;;;;;;1.67;0.77;;;8.30;99.90;;;;;;5030697;28;20428;-74
2022/02/06 04:06:06;;;;;;;3.40;0.80;;;8.30;99.90;;;;;;5031288;28;20292;-72
2022/02/06 04:08:35;;;;;;;4.15;1.13;;;8.30;99.90;;;;;;5030810;28;20025;-72
2022/02/06 04:11:04;;;;;;;2.13;0.80;;;8.40;99.90;;;;;;5030862;28;20030;-72
2022/02/06 04:13:32;;;;;;;1.00;0.82;;;8.30;99.90;;;;;;5030961;28;20084;-74
2022/02/06 04:16:01;;;;;;;3.38;1.23;;;8.30;99.90;;;;;;5030762;28;20033;-74
2022/02/06 04:20:52;;;;;;;5.55;1.10;;;8.40;99.90;;;;;;5030776;28;20033;-74
2022/02/06 04:23:18;;;;;;;2.50;0.80;;;8.30;99.90;;;;;;5030612;28;20388;-73
2022/02/06 04:25:44;;;;;;;2.50;0.90;;;8.30;99.90;;;;;;5030602;28;20053;-73
2022/02/06 04:28:09;;;;;;;0.93;0.70;;;8.40;99.90;;;;;;5030731;28;20453;-73
2022/02/06 04:30:35;;;;;;;1.02;0.95;;;8.40;99.90;;;;;;5033151;28;20022;-72
2022/02/06 04:33:01;;;;;;;2.97;0.90;;;8.40;99.90;;;;;;5033628;28;20036;-73
2022/02/06 04:35:32;;;;;;;2.63;0.88;;;8.30;99.90;;;;;;5034429;28;20458;-73
2022/02/06 04:38:12;;;;;;;2.97;1.00;;;8.40;99.90;;;;;;5034440;28;20049;-74
2022/02/06 04:53:48;;;;;;;3.88;0.80;;;8.40;99.90;;;;;;5034150;28;20026;-75
2022/02/06 05:15:46;;;;;;;1.95;1.17;;;8.40;99.90;;;;;;5034383;28;20044;-72
2022/02/06 05:19:01;;;;;;;1.45;0.90;;;8.50;99.90;;;;;;5033757;28;20400;-72
2022/02/06 05:31:56;;;;;;;3.00;1.00;;;8.50;99.90;;;;;;5033525;28;20132;-73
2022/02/06 05:34:22;;;;;;;3.10;1.27;;;8.50;99.90;;;;;;5032180;28;20040;-73
2022/02/06 05:36:48;;;;;;;2.10;0.93;;;8.50;99.90;;;;;;5033271;28;20033;-73
2022/02/06 05:39:14;;;;;;;3.20;1.10;;;8.50;99.90;;;;;;5033529;28;20021;-73
2022/02/06 05:41:39;;;;;;;2.88;1.08;;;8.50;99.90;;;;;;5033163;28;20115;-72
2022/02/06 05:44:05;;;;;;;1.63;1.00;;;8.60;99.90;;;;;;5032955;28;20041;-72
2022/02/06 05:46:31;;;;;;;4.60;1.08;;;8.50;99.90;;;;;;5032987;28;20033;-72
2022/02/06 05:48:56;;;;;;;3.40;1.20;;;8.60;99.90;;;;;;5032888;28;20037;-73
2022/02/06 05:51:22;;;;;;;2.88;1.13;;;8.50;99.90;;;;;;5033328;28;20204;-72
2022/02/06 05:53:48;;;;;;;1.30;1.05;;;8.60;99.90;;;;;;5032970;28;20033;-72
2022/02/06 05:56:16;;;;;;;4.25;1.02;;;8.60;99.90;;;;;;5032880;28;20049;-72
2022/02/06 05:58:46;;;;;;;5.28;1.10;;;8.60;99.90;;;;;;5032688;28;20060;-74
2022/02/06 06:01:11;;;;;;;2.75;1.02;;;8.60;99.90;;;;;;5032837;28;20041;-74
2022/02/06 06:03:37;;;;;;;2.40;1.00;;;8.60;99.90;;;;;;5031924;28;20021;-74
2022/02/06 06:06:03;;;;;;;2.20;0.80;;;8.60;99.90;;;;;;5033017;28;20057;-74
2022/02/06 06:08:30;;;;;;;2.50;1.13;;;8.70;99.90;;;;;;5032566;28;20380;-72
2022/02/06 06:10:55;;;;;;;3.03;1.25;;;8.70;99.90;;;;;;5032605;28;20037;-72
2022/02/06 06:13:21;;;;;;;3.55;1.33;;;8.60;99.90;;;;;;5032613;28;20030;-72
2022/02/06 06:15:46;;;;;;;1.38;1.00;;;8.70;99.90;;;;;;5032519;28;20018;-72
2022/02/06 06:18:14;;;;;;;0.80;0.65;;;8.70;99.90;;;;;;5032760;28;20122;-72
2022/02/06 06:20:40;;;;;;;1.95;1.00;;;8.70;99.90;;;;;;5032451;28;20026;-73
2022/02/06 06:23:06;;;;;;;1.42;0.70;;;8.70;99.90;;;;;;5032133;28;20092;-72
2022/02/06 06:25:38;;;;;;;1.67;0.95;;;8.70;99.90;;;;;;5032167;28;20033;-72
2022/02/06 06:28:05;;;;;;;2.20;0.77;;;8.60;99.90;;;;;;5031248;28;20026;-73
2022/02/06 06:30:31;;;;;;;2.28;1.17;;;8.70;99.90;;;;;;5032134;28;20105;-72
2022/02/06 06:32:56;;;;;;;4.05;1.40;;;8.70;99.90;;;;;;5031559;28;20117;-73
2022/02/06 06:35:22;;;;;;;3.72;1.17;;;8.70;99.90;;;;;;5032115;28;20037;-72
2022/02/06 06:37:49;;;;;;;3.72;1.13;;;8.70;99.90;;;;;;5031014;28;20057;-73
2022/02/06 06:40:18;;;;;;;1.45;0.93;;;8.70;99.90;;;;;;5030987;28;20379;-73
2022/02/06 06:42:44;;;;;;;2.47;0.80;;;8.70;99.90;;;;;;5031731;28;20419;-73
2022/02/06 06:45:10;;;;;;;3.72;1.00;;;8.70;99.90;;;;;;5031385;28;20060;-73
2022/02/06 06:47:35;;;;;;;1.13;0.80;;;8.70;99.90;;;;;;5030847;28;20033;-74
2022/02/06 06:50:03;;;;;;;1.38;0.63;;;8.80;99.90;;;;;;5031882;28;20466;-73
2022/02/06 06:52:29;;;;;;;4.93;1.67;;;8.70;99.90;;;;;;5031519;28;20025;-72
2022/02/06 06:55:01;;;;;;;3.67;1.20;;;8.80;99.90;;;;;;5031657;28;20497;-72
2022/02/06 06:57:32;;;;;;;3.67;1.13;;;8.70;99.90;;;;;;5032058;28;20079;-73
2022/02/06 07:02:33;;;;;;;1.05;0.80;;;8.80;99.90;;;;;;5031609;28;20025;-73
2022/02/06 07:05:04;;;;;;;0.95;0.80;;;8.80;99.90;;;;;;5030385;28;20034;-73
2022/02/06 07:07:31;;;;;;;4.03;0.93;;;8.70;99.90;;;;;;5031577;28;20117;-72
2022/02/06 07:09:57;;;;;;;1.15;0.50;;;8.80;99.90;;;;;;5031411;28;20025;-74
2022/02/06 07:12:23;;;;;;;0.70;0.60;;;8.80;99.90;;;;;;5032035;28;20037;-74
2022/02/06 07:14:50;;;;;;;1.27;0.68;;;8.80;99.90;;;;;;5031412;28;20133;-74
2022/02/06 07:17:17;;;;;;;0.83;0.53;;;8.80;99.90;;;;;;5030396;28;20041;-73
2022/02/06 07:19:44;;;;;;;1.48;0.70;;;8.80;99.90;;;;;;5030282;28;20446;-74
2022/02/06 07:22:14;;;;;;;1.45;0.77;;;8.80;99.90;;;;;;5031369;28;20062;-73
2022/02/06 07:24:40;;;;;;;1.77;0.85;;;8.80;99.90;;;;;;5031466;28;20029;-73
2022/02/06 07:27:29;;;;;;;2.80;0.68;;;8.80;99.90;;;;;;5031749;28;20495;-72
2022/02/06 07:29:58;;;;;;;2.25;0.85;;;8.90;99.90;;;;;;5031335;28;20045;-72
2022/02/06 07:32:24;;;;;;;1.15;0.70;;;8.90;99.90;;;;;;5031114;28;20098;-73
2022/02/06 07:34:50;;;;;;;1.10;0.70;;;9.00;99.90;;;;;;5031189;28;20030;-73
2022/02/06 07:37:15;;;;;;;1.45;0.70;;;8.90;99.90;;;;;;5031139;28;20394;-74
2022/02/06 07:39:42;;;;;;;1.40;0.80;;;8.90;99.90;;;;;;5031402;28;20096;-72
2022/02/06 07:42:09;;;;;;;1.40;0.70;;;9.00;99.90;;;;;;5031454;28;20021;-73
2022/02/06 07:44:36;;;;;;;2.40;0.83;;;9.00;99.90;;;;;;5030035;28;20038;-73
2022/02/06 07:47:13;;;;;;;0.80;0.77;;;9.00;99.90;;;;;;5031120;28;20491;-73
2022/02/06 07:49:42;;;;;;;0.60;0.60;;;9.00;99.90;;;;;;5031136;28;20037;-72
2022/02/06 07:52:08;;;;;;;1.73;1.10;;;9.00;99.90;;;;;;5031152;28;20765;-73
2022/02/06 07:54:33;;;;;;;2.15;1.02;;;9.10;99.90;;;;;;5030992;28;20116;-73
2022/02/06 07:56:59;;;;;;;4.30;1.05;;;9.00;99.90;;;;;;5030602;28;20348;-73
2022/02/06 07:59:24;;;;;;;4.07;0.70;;;9.00;99.90;;;;;;5030041;28;20022;-72
2022/02/06 08:01:51;;;;;;;0.60;0.55;;;9.10;99.90;;;;;;5030940;28;20083;-73
2022/02/06 08:04:17;;;;;;;0.85;0.68;;;9.10;99.90;;;;;;5031159;28;20043;-73
2022/02/06 08:06:42;;;;;;;2.55;0.63;;;9.10;99.90;;;;;;5034919;28;20037;-72
2022/02/06 08:09:09;;;;;;;1.48;0.80;;;9.00;99.90;;;;;;5035374;28;20025;-73
2022/02/06 08:11:41;;;;;;;2.55;1.02;;;9.00;99.90;;;;;;5034927;28;20100;-72
2022/02/06 08:14:07;;;;;;;0.90;0.80;;;9.00;99.90;;;;;;5034853;28;20029;-75
2022/02/06 08:16:34;;;;;;;0.55;0.55;;;9.00;99.90;;;;;;5035236;28;20407;-73
2022/02/06 08:19:00;;;;;;;1.52;0.80;;;9.10;99.90;;;;;;5034545;28;20033;-72
2022/02/06 08:21:25;;;;;;;2.58;0.80;;;9.10;99.90;;;;;;5033437;28;20040;-70
2022/02/06 08:23:51;;;;;;;1.20;0.90;;;9.10;99.90;;;;;;5034692;28;20374;-73
2022/02/06 08:26:17;;;;;;;1.70;0.77;;;9.10;99.90;;;;;;5033416;28;20084;-73
2022/02/06 08:28:43;;;;;;;1.77;0.73;;;9.10;99.90;;;;;;5034541;28;20046;-73
2022/02/06 08:31:09;;;;;;;2.10;0.73;;;9.20;99.90;;;;;;5031556;28;20785;-74
2022/02/06 08:33:34;;;;;;;1.55;0.80;;;9.20;99.90;;;;;;5022158;28;20450;-74
2022/02/06 08:36:00;;;;;;;1.58;0.77;;;9.30;99.90;;;;;;5018449;28;20062;-74
2022/02/06 08:38:27;;;;;;;2.20;1.10;;;9.30;99.90;;;;;;5018566;28;20034;-76
2022/02/06 08:40:53;;;;;;;0.80;0.80;;;9.40;99.90;;;;;;5017310;28;20379;-76
2022/02/06 08:43:20;;;;;;;1.52;0.80;;;9.40;99.90;;;;;;5016746;28;20053;-73
2022/02/06 08:45:45;;;;;;;5.88;0.70;;;9.30;99.90;;;;;;5017334;28;20026;-72
2022/02/06 08:48:11;;;;;;;1.10;0.60;;;9.30;99.90;;;;;;5017066;28;20297;-73
2022/02/06 08:50:37;;;;;;;1.42;0.60;;;9.40;99.90;;;;;;5017977;28;20029;-77
2022/02/06 08:53:02;;;;;;;2.63;0.90;;;9.40;99.90;;;;;;5017480;28;20056;-74
2022/02/06 08:55:29;;;;;;;1.38;0.70;;;9.40;99.90;;;;;;5016703;28;20092;-75
2022/02/06 08:57:56;;;;;;;4.53;1.00;;;9.40;99.90;;;;;;5014945;28;20026;-75
2022/02/06 09:00:23;;;;;;;2.25;0.82;;;9.50;99.90;;;;;;5016351;28;20333;-74
2022/02/06 09:02:50;;;;;;;2.75;1.10;;;9.50;99.90;;;;;;5015128;28;20037;-73
2022/02/06 09:05:16;;;;;;;1.67;0.90;;;9.50;99.90;;;;;;5015686;28;20022;-74
2022/02/06 09:07:45;;;;;;;2.67;1.10;;;9.50;99.90;;;;;;5015818;28;20073;-74
2022/02/06 09:10:15;;;;;;;1.80;0.88;;;9.50;99.90;;;;;;5007565;28;20080;-73
2022/02/06 09:13:31;;;;;;;1.23;1.00;;;9.50;99.90;;;;;;5014141;28;20116;-74
2022/02/06 09:16:08;;;;;;;0.90;0.70;;;9.50;99.90;;;;;;4986009;28;20116;-75
2022/02/06 09:18:37;;;;;;;2.58;0.95;;;9.50;99.90;;;;;;5010419;28;20463;-75
2022/02/06 09:21:03;;;;;;;2.75;1.30;;;9.60;99.90;;;;;;5014316;28;20026;-78
2022/02/06 09:23:29;;;;;;;3.05;1.33;;;9.60;99.90;;;;;;5014112;28;20118;-75
2022/02/06 09:25:54;;;;;;;2.22;0.80;;;9.60;99.90;;;;;;5013760;28;20030;-77
2022/02/06 09:28:20;;;;;;;0.82;0.77;;;9.70;99.90;;;;;;5012767;28;20041;-75
2022/02/06 09:30:45;;;;;;;3.25;0.90;;;9.70;99.90;;;;;;5013705;28;20352;-77
2022/02/06 09:35:38;;;;;;;1.90;0.80;;;9.70;99.90;;;;;;5013698;28;20042;-77
2022/02/06 09:38:04;;;;;;;2.80;0.93;;;9.60;99.90;;;;;;5013737;28;20057;-78
2022/02/06 09:40:37;;;;;;;1.20;0.52;;;9.70;99.90;;;;;;5013633;28;20091;-78
2022/02/06 09:43:04;;;;;;;1.52;0.40;;;9.70;99.90;;;;;;5013409;28;20053;-73
2022/02/06 09:45:31;;;;;;;3.55;0.50;;;9.70;99.90;;;;;;5013796;28;20440;-74
2022/02/06 09:47:57;;;;;;;0.98;0.82;;;9.60;99.90;;;;;;5012235;28;20108;-74
2022/02/06 09:50:24;;;;;;;2.08;0.77;;;9.70;99.90;;;;;;5013493;28;20038;-76
2022/02/06 09:52:50;;;;;;;0.40;0.40;;;9.70;99.90;;;;;;5013252;28;20042;-76
2022/02/06 09:55:19;;;;;;;2.10;0.50;;;9.70;99.90;;;;;;5013371;28;20021;-76
2022/02/06 09:57:54;;;;;;;1.05;0.52;;;9.70;99.90;;;;;;5013325;28;20120;-76
2022/02/06 10:00:22;;;;;;;2.88;0.60;;;9.70;99.90;;;;;;5013612;28;20339;-74
2022/02/06 10:02:51;;;;;;;0.93;0.60;;;9.60;99.90;;;;;;5012108;28;20038;-78
2022/02/06 10:05:17;;;;;;;;;;;9.70;99.90;;;;;;5013746;28;20026;-77
2022/02/06 10:07:52;;;;;;;1.20;0.63;;;9.70;99.90;;;;;;5013235;28;20044;-78
2022/02/06 10:10:22;;;;;;;2.97;0.50;;;9.60;99.90;;;;;;5013082;28;20033;-74
2022/02/06 10:12:52;;;;;;;1.38;0.70;;;9.60;99.90;;;;;;5012863;28;20044;-75
2022/02/06 10:15:21;;;;;;;1.63;0.50;;;9.60;99.90;;;;;;5011969;28;20038;-77
2022/02/06 10:17:49;;;;;;;1.63;0.52;;;9.60;99.90;;;;;;5012761;28;20052;-74
2022/02/06 10:20:17;;;;;;;1.48;0.70;;;9.60;99.90;;;;;;5012846;28;20081;-74
2022/02/06 10:22:59;;;;;;;0.70;0.40;;;9.60;99.90;;;;;;5012850;28;20037;-75
2022/02/06 10:25:25;;;;;;;1.17;0.57;;;9.60;99.90;;;;;;5012670;28;20030;-74
2022/02/06 10:28:10;;;;;;;1.50;0.65;;;9.60;99.90;;;;;;5012064;28;20317;-74
2022/02/06 10:30:42;;;;;;;1.48;0.52;;;9.60;99.90;;;;;;5012632;28;20021;-75
2022/02/06 10:33:12;;;;;;;5.25;0.90;;;9.60;99.90;;;;;;5013325;28;20398;-75
2022/02/06 10:35:40;;;;;;;3.30;0.75;;;9.60;99.90;;;;;;5012658;28;20431;-76
2022/02/06 10:38:26;;;;;;;3.08;1.52;;;9.50;99.90;;;;;;5012155;28;20177;-76
2022/02/06 10:41:13;;;;;;;0.50;0.40;;;9.60;99.90;;;;;;5012657;28;20173;-75
2022/02/06 10:44:06;;;;;;;1.35;0.55;;;9.50;99.90;;;;;;5012365;28;20128;-77
2022/02/06 10:46:35;;;;;;;2.67;0.50;;;9.60;99.90;;;;;;5012307;28;20518;-75
2022/02/06 10:49:09;;;;;;;1.08;0.55;;;9.60;99.90;;;;;;5012335;28;20034;-77
2022/02/06 10:51:56;;;;;;;0.20;0.20;;;9.50;99.90;;;;;;5012238;28;20036;-75
2022/02/06 10:54:28;;;;;;;1.63;0.60;;;9.60;99.90;;;;;;5011564;28;20029;-75
2022/02/06 10:57:03;;;;;;;0.65;0.35;;;9.70;99.90;;;;;;5012469;28;20375;-75
2022/02/06 10:59:53;;;;;;;0.40;0.30;;;9.60;99.90;;;;;;5012212;28;20052;-76
2022/02/06 11:02:46;;;;;;;0.65;0.40;;;9.60;99.90;;;;;;5012116;28;20034;-75
2022/02/06 11:05:17;;;;;;;1.00;0.40;;;9.60;99.90;;;;;;5012093;28;20120;-77
2022/02/06 11:07:54;;;;;;;1.50;0.63;;;9.50;99.90;;;;;;5012001;28;20041;-73
2022/02/06 11:10:21;;;;;;;1.98;0.60;;;9.60;99.90;;;;;;5011988;28;20056;-75
2022/02/06 11:12:52;;;;;;;0.97;0.70;;;9.60;99.90;;;;;;5011779;28;20440;-75
2022/02/06 11:15:37;;;;;;;0.98;0.40;;;9.60;99.90;;;;;;5012636;28;20555;-82
2022/02/06 11:18:09;;;;;;;1.58;0.40;;;9.60;99.90;;;;;;5011757;28;20436;-78
2022/02/06 11:20:36;;;;;;;1.83;1.10;;;9.60;99.90;;;;;;5012142;28;20408;-78
2022/02/06 11:23:03;;;;;;;1.13;0.63;;;9.60;99.90;;;;;;5011981;28;20030;-77
2022/02/06 11:25:33;;;;;;;1.00;0.45;;;9.60;99.90;;;;;;5010732;28;20054;-75
2022/02/06 11:28:01;;;;;;;2.22;1.55;;;9.50;99.90;;;;;;5011836;28;20068;-77
2022/02/06 11:30:27;;;;;;;2.58;1.10;;;9.50;99.90;;;;;;5011319;28;20056;-76
2022/02/06 11:32:54;;;;;;;0.32;0.30;;;9.50;99.90;;;;;;5010665;28;20092;-76
2022/02/06 11:35:24;;;;;;;0.85;0.40;;;9.60;99.90;;;;;;5011804;28;20475;-77
2022/02/06 11:44:15;;;;;;;1.15;0.22;;;9.40;99.90;;;;;;5012361;28;20184;-75
2022/02/06 11:46:54;;;;;;;0.20;0.20;;;9.40;99.90;;;;;;5030881;28;20033;-71
2022/02/06 11:49:21;;;;;;;1.42;0.60;;;9.30;99.90;;;;;;5030966;28;20408;-72
2022/02/06 11:51:54;;;;;;;0.98;0.63;;;9.30;99.90;;;;;;5030889;28;20057;-73
2022/02/06 11:54:57;;;;;;;2.20;0.50;;;9.30;99.90;;;;;;5031333;28;20104;-73
2022/02/06 11:57:26;;;;;;;0.32;0.20;;;9.30;99.90;;;;;;5031032;28;20033;-74
2022/02/06 12:00:07;;;;;;;1.13;0.50;;;9.30;99.90;;;;;;5031122;28;20030;-74
2022/02/06 12:02:35;;;;;;;0.80;0.30;;;9.30;99.90;;;;;;5031052;28;20034;-74
2022/02/06 12:05:13;;;;;;;0.98;0.40;;;9.20;99.90;;;;;;5031119;28;20044;-79
2022/02/06 12:08:03;;;;;;;0.95;0.45;;;9.20;99.90;;;;;;5031103;28;20116;-77
2022/02/06 12:10:35;;;;;;;4.28;0.75;;;9.20;99.90;;;;;;5031216;28;20033;-77
2022/02/06 12:13:19;;;;;;;2.45;0.40;;;9.10;99.90;;;;;;5030255;28;20044;-74
2022/02/06 12:16:06;;;;;;;0.75;0.30;;;9.10;99.90;;;;;;5029975;28;20029;-75
2022/02/06 12:18:39;;;;;;;1.80;0.73;;;9.00;99.90;;;;;;5030892;28;20053;-76
2022/02/06 12:21:20;;;;;;;0.88;0.40;;;9.00;99.90;;;;;;5031603;28;20025;-75
2022/02/06 12:23:54;;;;;;;0.98;0.50;;;9.00;99.90;;;;;;5031029;28;20033;-76
2022/02/06 12:26:31;;;;;;;1.15;0.40;;;8.90;99.90;;;;;;5030872;28;20029;-76
2022/02/06 12:29:18;;;;;;;0.50;0.38;;;8.90;99.90;;;;;;5030914;28;20458;-73
2022/02/06 12:31:48;;;;;;;0.73;0.30;;;8.90;99.90;;;;;;5031025;28;20036;-74
2022/02/06 12:37:23;;;;;;;0.88;0.40;;;8.80;99.90;;;;;;5031041;28;20111;-75
2022/02/06 12:39:49;;;;;;;0.55;0.32;;;8.80;99.90;;;;;;5031010;28;20025;-77
2022/02/06 12:42:17;;;;;;;4.03;0.63;;;8.80;99.90;;;;;;5030174;28;20021;-78
2022/02/06 12:44:44;;;;;;;3.95;0.65;;;8.80;99.90;;;;;;5029335;28;20041;-77
2022/02/06 12:47:15;;;;;;;1.05;0.30;;;8.70;99.90;;;;;;5030938;28;20466;-78
2022/02/06 12:49:41;;;;;;;0.75;0.32;;;8.80;99.90;;;;;;5029572;28;20107;-75
2022/02/06 12:52:08;;;;;;;1.48;0.30;;;8.80;99.90;;;;;;5033807;28;20029;-74
2022/02/06 12:54:35;;;;;;;1.95;0.28;;;8.80;99.90;;;;;;5034168;28;20047;-74
2022/02/06 12:57:01;;;;;;;0.10;0.10;;;8.80;99.90;;;;;;5034637;28;20025;-75
2022/02/06 12:59:30;;;;;;;0.50;0.15;;;8.80;99.90;;;;;;5033024;28;20037;-76
2022/02/06 13:01:57;;;;;;;1.95;0.17;;;8.70;99.90;;;;;;5034054;28;20461;-75
2022/02/06 13:04:28;;;;;;;2.80;0.40;;;8.60;99.90;;;;;;5033719;28;20046;-75
2022/02/06 13:07:00;;;;;;;1.05;0.43;;;8.60;99.90;;;;;;5034011;28;20463;-76
2022/02/06 13:09:35;;;;;;;1.20;0.55;;;8.60;99.90;;;;;;5034314;28;20025;-73
2022/02/06 13:20:30;;;;;;;2.33;0.30;;;8.50;99.90;;;;;;5033683;28;20057;-74
2022/02/06 13:26:02;;;;;;;1.75;0.20;;;8.40;99.90;;;;;;5033968;28;20026;-74
2022/02/06 13:39:35;;;;;;;1.65;1.42;;;8.40;99.90;;;;;;5032225;28;20042;-76
2022/02/06 13:42:10;;;;;;;1.07;0.20;;;8.40;99.90;;;;;;5032356;28;20045;-76
2022/02/06 13:44:35;;;;;;;0.52;0.22;;;8.30;99.90;;;;;;5033363;28;20038;-76
2022/02/06 13:47:03;;;;;;;1.85;0.20;;;8.40;99.90;;;;;;5033464;28;20447;-74
2022/02/06 13:49:39;;;;;;;0.38;0.20;;;8.30;99.90;;;;;;5032149;28;20041;-75
2022/02/06 13:52:06;;;;;;;0.75;0.10;;;8.40;99.90;;;;;;5033721;28;20031;-75
2022/02/06 13:54:36;;;;;;;0.40;0.40;;;8.30;99.90;;;;;;5033473;28;20026;-77
2022/02/06 13:57:05;;;;;;;1.23;0.55;;;8.30;99.90;;;;;;5032500;28;20053;-75
2022/02/06 13:59:38;;;;;;;0.55;0.35;;;8.20;99.90;;;;;;5033224;28;20036;-76
2022/02/06 14:02:08;;;;;;;1.30;0.93;;;8.30;99.90;;;;;;5032087;28;20049;-76
2022/02/06 14:04:37;;;;;;;0.80;0.57;;;8.20;99.90;;;;;;5032857;28;20052;-74
2022/02/06 14:07:19;;;;;;;3.10;0.20;;;8.20;99.90;;;;;;5032754;28;20044;-75
2022/02/06 14:10:02;;;;;;;0.30;0.13;;;8.20;99.90;;;;;;5031795;28;20068;-77
2022/02/06 14:12:28;;;;;;;1.65;0.50;;;8.10;99.90;;;;;;5033154;28;20041;-74
2022/02/06 14:14:55;;;;;;;6.85;2.20;;;8.10;99.90;;;;;;5031602;28;20021;-78
2022/02/06 14:17:24;;;;;;;0.47;0.20;;;8.10;99.90;;;;;;5032573;28;20045;-77
2022/02/06 14:19:51;;;;;;;1.50;0.50;;;8.00;99.90;;;;;;5032621;28;20033;-74
2022/02/06 14:22:43;;;;;;;0.60;0.40;;;7.80;99.90;;;;;;5031473;28;20055;-76
2022/02/06 14:25:22;;;;;;;2.55;0.28;;;7.80;99.90;;;;;;5032713;28;20044;-77
2022/02/06 14:27:48;;;;;;;2.40;0.60;;;7.70;99.90;;;;;;5031690;28;20383;-76
2022/02/06 14:30:16;;;;;;;0.95;0.50;;;7.70;99.90;;;;;;5033244;28;20017;-76
2022/02/06 14:33:04;;;;;;;0.40;0.30;;;7.70;99.90;;;;;;5031848;28;20116;-79
2022/02/06 14:35:58;;;;;;;1.30;0.70;;;7.50;99.90;;;;;;5031516;28;20029;-82
2022/02/06 14:41:35;;;;;;;14.95;2.05;;;7.20;99.90;;;;;;5032532;28;20029;-76
2022/02/06 14:44:08;;;;;;;16.15;3.30;;;7.50;99.90;;;;;;5032134;28;20034;-77
2022/02/06 14:46:35;;;;;;;6.43;1.58;;;8.00;99.90;;;;;;5032037;28;20049;-79
2022/02/06 14:49:06;;;;;;;5.50;1.63;;;8.10;99.90;;;;;;5032071;28;20025;-74
2022/02/06 14:51:34;;;;;;;3.58;0.75;;;8.30;99.90;;;;;;5032161;28;20024;-73
2022/02/06 14:54:01;;;;;;;4.93;1.50;;;8.50;99.90;;;;;;5032077;28;20053;-78
2022/02/06 14:56:28;;;;;;;4.45;1.80;;;8.40;99.90;;;;;;5032219;28;20116;-77
2022/02/06 14:58:55;;;;;;;3.35;0.80;;;8.60;99.90;;;;;;5031359;28;20025;-76
2022/02/06 15:01:20;;;;;;;1.90;0.60;;;8.10;99.90;;;;;;5032090;28;20040;-76
2022/02/06 15:03:46;;;;;;;0.60;0.38;;;8.00;99.90;;;;;;5032070;28;20029;-75
2022/02/06 15:06:11;;;;;;;0.52;0.28;;;7.90;99.90;;;;;;5032500;28;20022;-75
2022/02/06 15:08:37;;;;;;;2.08;0.43;;;7.80;99.90;;;;;;5031853;28;20645;-75
2022/02/06 15:11:03;;;;;;;0.52;0.43;;;7.80;99.90;;;;;;5032154;28;20256;-75
2022/02/06 15:13:32;;;;;;;2.92;0.80;;;7.70;99.90;;;;;;5031524;28;20034;-74
2022/02/06 15:16:04;;;;;;;0.75;0.50;;;7.80;99.90;;;;;;5032145;28;20056;-72
2022/02/06 15:18:36;;;;;;;2.38;0.70;;;7.70;99.90;;;;;;5032170;28;20515;-75
2022/02/06 15:21:04;;;;;;;1.73;1.08;;;7.70;99.90;;;;;;5030663;28;20125;-77
2022/02/06 15:23:29;;;;;;;2.60;0.52;;;7.70;99.90;;;;;;5031678;28;20091;-76
2022/02/06 15:25:55;;;;;;;0.75;0.50;;;7.70;99.90;;;;;;5032874;28;20033;-77
2022/02/06 15:28:23;;;;;;;1.98;0.75;;;7.70;99.90;;;;;;5034782;28;20030;-76
2022/02/06 15:30:48;;;;;;;1.48;0.75;;;7.70;99.90;;;;;;5032619;28;20071;-75
2022/02/06 15:33:14;;;;;;;1.58;0.95;;;7.50;99.90;;;;;;5034975;28;20072;-78
2022/02/06 15:35:40;;;;;;;3.95;0.65;;;7.70;99.90;;;;;;5034381;28;20479;-77
2022/02/06 15:38:07;;;;;;;0.90;0.45;;;7.70;99.90;;;;;;5033770;28;20030;-78
2022/02/06 15:40:35;;;;;;;1.27;0.77;;;7.70;99.90;;;;;;5032852;28;20364;-75
2022/02/06 15:43:01;;;;;;;0.75;0.43;;;7.70;99.90;;;;;;5031440;28;20041;-76